Palacios, Texas
Current Conditions -  °F | °C
As of 8:53 AM on Saturday 25 Oct 2014 (Local Time) from KPSX Reporting Station
Clear Clear  
Wind Chill: 64°   Ceiling: Unl
Heat Index: 64°   Visibility: 10mi
Dew Point: 59°   Wind: 6mph
Humidity: 84%   Direction: 360°N
Pressure: 30.17"   Gusts: NA
Location:  28.71°N, 96.22°W
Report Text: KPSX 251353Z AUTO 36005KT 10SM CLR 18/15 A3017 RMK AO2 SLP215 T01780150
Loading
Personal Weather Stations






























Interactive Weather Map
Tropical Storm Tracking
New forecast layout! Learn more

10-Day Weather Forecast

Advertisements
Track Severe Weather on mobile